Pagrindinis puslapis
METAR-TAF:

METAR-TAF

Oro uostai :

Manta, Ekvadoras

platuma: 00-57S, ilguma: 080-41W, Aukštis: 13 m

Dabartinis oras

Ataskaita buvo paskelbta 54 minutes, ne 13:00 UTC
Vėjas 6 kt iš Pietų/Pietvakarių
Temperatūra 24°C
Drėgmė 89%
Slėgis 1016 hPa
Matomumas 10 km arba daugiau
Su prošvaistėmis ne aukštis 2300 ft

METAR: SEMT 071300Z 21006KT 9999 BKN023 24/22 Q1016

Laikas: 08:54 (13:54 UTC)

Prognozė

Ataskaita buvo paskelbta 4 valandos ir 34 minutes, ne 09:20 UTC
Prognozė galioja nuo 07 metu 12 UTC su 08 metu 12 UTC
Vėjas 6 kt iš Pietvakarių
Matomumas 10 km arba daugiau
Apsiniaukę ne aukštis 2000 ft
Tapsmas
nuo 07 metu 17 UTC su 07 metu 18 UTC
Su prošvaistėmis ne aukštis 2300 ft
Su prošvaistėmis ne aukštis 10000 ft

TAF: SEMT 070920Z 0712/0812 22006KT 9999 OVC020 BECMG 0717/0718 BKN023 BKN100 TX30/0720Z TN23/0810Z

Orai ataskaitas ir orų prognozės (METAR, TAF).

turimą stotys yra geltonos ir raudonos taškus žemėlapyje.

Perkelti pele per norėdami pamatyti stoties vardą.

Tada spustelėkite, norėdami matyti oro stebėjimo ir prognozės.

Norėdami pakeisti žemėlapį: spustelėkite ant žalios mygtukų su juodo kryžiaus žemyn,; žalią mygtuką su brūkšneliu, jei norite nutolinti; arba žalių rodyklių gretimoms žemėlapius.


METAR-TAF: